sensor_id;sensor_type;location;lat;lon;timestamp;P1;durP1;ratioP1;P2;durP2;ratioP2
51838;SDS011;37886;53.174;6.368;2022-12-07T00:04:42;10.45;;;1.90;;
51838;SDS011;37886;53.174;6.368;2022-12-07T00:07:14;15.23;;;2.13;;
51838;SDS011;37886;53.174;6.368;2022-12-07T00:09:40;9.80;;;2.03;;
51838;SDS011;37886;53.174;6.368;2022-12-07T00:12:09;13.52;;;1.60;;
51838;SDS011;37886;53.174;6.368;2022-12-07T00:14:36;17.83;;;1.92;;
51838;SDS011;37886;53.174;6.368;2022-12-07T00:17:28;14.18;;;1.70;;
51838;SDS011;37886;53.174;6.368;2022-12-07T00:20:04;11.02;;;1.35;;
51838;SDS011;37886;53.174;6.368;2022-12-07T00:22:48;21.13;;;4.32;;
51838;SDS011;37886;53.174;6.368;2022-12-07T00:25:14;10.90;;;3.63;;
51838;SDS011;37886;53.174;6.368;2022-12-07T00:27:43;14.80;;;3.17;;
51838;SDS011;37886;53.174;6.368;2022-12-07T00:30:39;11.85;;;3.20;;
51838;SDS011;37886;53.174;6.368;2022-12-07T00:33:24;8.35;;;1.88;;
51838;SDS011;37886;53.174;6.368;2022-12-07T00:35:54;9.40;;;3.28;;
51838;SDS011;37886;53.174;6.368;2022-12-07T00:40:53;12.18;;;2.00;;
51838;SDS011;37886;53.174;6.368;2022-12-07T00:43:25;5.72;;;1.63;;
51838;SDS011;37886;53.174;6.368;2022-12-07T00:45:54;9.48;;;3.17;;
51838;SDS011;37886;53.174;6.368;2022-12-07T00:48:20;8.27;;;3.15;;
51838;SDS011;37886;53.174;6.368;2022-12-07T00:50:52;13.55;;;1.77;;
51838;SDS011;37886;53.174;6.368;2022-12-07T00:53:18;4.85;;;1.20;;
51838;SDS011;37886;53.174;6.368;2022-12-07T00:55:46;9.55;;;1.20;;
51838;SDS011;37886;53.174;6.368;2022-12-07T00:58:14;10.40;;;1.83;;
51838;SDS011;37886;53.174;6.368;2022-12-07T01:00:41;16.00;;;4.60;;
51838;SDS011;37886;53.174;6.368;2022-12-07T01:03:08;12.93;;;1.85;;
51838;SDS011;37886;53.174;6.368;2022-12-07T01:05:36;6.45;;;0.95;;
51838;SDS011;37886;53.174;6.368;2022-12-07T01:08:01;12.30;;;2.00;;
51838;SDS011;37886;53.174;6.368;2022-12-07T01:10:28;8.77;;;1.45;;
51838;SDS011;37886;53.174;6.368;2022-12-07T01:12:55;9.38;;;1.52;;
51838;SDS011;37886;53.174;6.368;2022-12-07T01:15:21;12.43;;;1.90;;
51838;SDS011;37886;53.174;6.368;2022-12-07T01:17:47;7.60;;;1.40;;
51838;SDS011;37886;53.174;6.368;2022-12-07T01:20:13;17.17;;;1.65;;
51838;SDS011;37886;53.174;6.368;2022-12-07T01:22:41;12.25;;;2.10;;
51838;SDS011;37886;53.174;6.368;2022-12-07T01:25:08;18.50;;;1.80;;
51838;SDS011;37886;53.174;6.368;2022-12-07T01:27:36;9.20;;;1.35;;
51838;SDS011;37886;53.174;6.368;2022-12-07T01:30:03;10.75;;;2.10;;
51838;SDS011;37886;53.174;6.368;2022-12-07T01:32:30;16.60;;;2.05;;
51838;SDS011;37886;53.174;6.368;2022-12-07T01:34:56;11.60;;;1.70;;
51838;SDS011;37886;53.174;6.368;2022-12-07T01:37:21;8.85;;;1.63;;
51838;SDS011;37886;53.174;6.368;2022-12-07T01:39:50;12.52;;;1.83;;
51838;SDS011;37886;53.174;6.368;2022-12-07T01:42:17;17.02;;;2.00;;
51838;SDS011;37886;53.174;6.368;2022-12-07T01:47:43;11.40;;;1.50;;
51838;SDS011;37886;53.174;6.368;2022-12-07T01:50:16;20.20;;;2.30;;
51838;SDS011;37886;53.174;6.368;2022-12-07T01:52:44;18.92;;;2.20;;
51838;SDS011;37886;53.174;6.368;2022-12-07T01:55:14;13.98;;;1.50;;
51838;SDS011;37886;53.174;6.368;2022-12-07T01:57:42;14.10;;;1.60;;
51838;SDS011;37886;53.174;6.368;2022-12-07T02:00:12;13.35;;;1.58;;
51838;SDS011;37886;53.174;6.368;2022-12-07T02:02:40;13.05;;;1.83;;
51838;SDS011;37886;53.174;6.368;2022-12-07T02:05:19;20.98;;;3.28;;
51838;SDS011;37886;53.174;6.368;2022-12-07T02:07:45;10.85;;;2.50;;
51838;SDS011;37886;53.174;6.368;2022-12-07T02:10:18;12.75;;;2.10;;
51838;SDS011;37886;53.174;6.368;2022-12-07T02:12:49;15.18;;;1.80;;
51838;SDS011;37886;53.174;6.368;2022-12-07T02:15:37;10.50;;;2.00;;
51838;SDS011;37886;53.174;6.368;2022-12-07T02:21:02;13.40;;;3.10;;
51838;SDS011;37886;53.174;6.368;2022-12-07T02:24:03;13.05;;;2.90;;
51838;SDS011;37886;53.174;6.368;2022-12-07T02:30:16;11.18;;;1.55;;
51838;SDS011;37886;53.174;6.368;2022-12-07T02:35:26;17.10;;;4.97;;
51838;SDS011;37886;53.174;6.368;2022-12-07T02:40:49;14.95;;;2.15;;
51838;SDS011;37886;53.174;6.368;2022-12-07T02:43:35;9.88;;;3.25;;
51838;SDS011;37886;53.174;6.368;2022-12-07T02:46:07;15.18;;;2.05;;
51838;SDS011;37886;53.174;6.368;2022-12-07T02:48:37;11.65;;;1.65;;
51838;SDS011;37886;53.174;6.368;2022-12-07T02:51:04;9.82;;;1.27;;
51838;SDS011;37886;53.174;6.368;2022-12-07T02:53:33;7.72;;;3.28;;
51838;SDS011;37886;53.174;6.368;2022-12-07T03:04:49;14.57;;;1.45;;
51838;SDS011;37886;53.174;6.368;2022-12-07T03:10:19;4.35;;;1.20;;
51838;SDS011;37886;53.174;6.368;2022-12-07T03:13:05;6.65;;;1.48;;
51838;SDS011;37886;53.174;6.368;2022-12-07T03:18:55;12.82;;;1.20;;
51838;SDS011;37886;53.174;6.368;2022-12-07T03:21:26;10.70;;;1.60;;
51838;SDS011;37886;53.174;6.368;2022-12-07T03:23:57;8.75;;;1.17;;
51838;SDS011;37886;53.174;6.368;2022-12-07T03:26:33;13.07;;;1.63;;
51838;SDS011;37886;53.174;6.368;2022-12-07T03:29:04;9.90;;;1.48;;
51838;SDS011;37886;53.174;6.368;2022-12-07T03:31:41;9.63;;;1.30;;
51838;SDS011;37886;53.174;6.368;2022-12-07T03:37:08;10.00;;;1.40;;
51838;SDS011;37886;53.174;6.368;2022-12-07T03:39:41;15.85;;;1.75;;
51838;SDS011;37886;53.174;6.368;2022-12-07T03:42:35;17.15;;;2.83;;
51838;SDS011;37886;53.174;6.368;2022-12-07T03:45:01;12.90;;;1.55;;
51838;SDS011;37886;53.174;6.368;2022-12-07T03:47:37;19.25;;;2.25;;
51838;SDS011;37886;53.174;6.368;2022-12-07T03:53:14;9.95;;;2.17;;
51838;SDS011;37886;53.174;6.368;2022-12-07T03:55:50;15.57;;;2.15;;
51838;SDS011;37886;53.174;6.368;2022-12-07T03:58:22;13.52;;;1.73;;
51838;SDS011;37886;53.174;6.368;2022-12-07T04:00:49;14.68;;;2.15;;
51838;SDS011;37886;53.174;6.368;2022-12-07T04:03:16;17.30;;;1.85;;
51838;SDS011;37886;53.174;6.368;2022-12-07T04:05:42;8.98;;;1.38;;
51838;SDS011;37886;53.174;6.368;2022-12-07T04:08:09;10.57;;;1.80;;
51838;SDS011;37886;53.174;6.368;2022-12-07T04:10:35;14.02;;;1.95;;
51838;SDS011;37886;53.174;6.368;2022-12-07T04:13:01;10.23;;;1.52;;
51838;SDS011;37886;53.174;6.368;2022-12-07T04:15:27;6.38;;;1.20;;
51838;SDS011;37886;53.174;6.368;2022-12-07T04:17:53;11.38;;;1.67;;
51838;SDS011;37886;53.174;6.368;2022-12-07T04:20:19;6.90;;;1.15;;
51838;SDS011;37886;53.174;6.368;2022-12-07T04:22:45;6.20;;;1.10;;
51838;SDS011;37886;53.174;6.368;2022-12-07T04:25:11;6.63;;;1.42;;
51838;SDS011;37886;53.174;6.368;2022-12-07T04:27:43;10.40;;;1.10;;
51838;SDS011;37886;53.174;6.368;2022-12-07T04:30:09;3.70;;;1.15;;
51838;SDS011;37886;53.174;6.368;2022-12-07T04:32:35;8.75;;;1.50;;
51838;SDS011;37886;53.174;6.368;2022-12-07T04:35:00;14.13;;;1.88;;
51838;SDS011;37886;53.174;6.368;2022-12-07T04:37:27;10.90;;;1.60;;
51838;SDS011;37886;53.174;6.368;2022-12-07T04:39:53;14.40;;;1.65;;
51838;SDS011;37886;53.174;6.368;2022-12-07T04:42:18;9.10;;;1.20;;
51838;SDS011;37886;53.174;6.368;2022-12-07T04:44:44;10.10;;;1.27;;
51838;SDS011;37886;53.174;6.368;2022-12-07T04:47:13;8.80;;;1.17;;
51838;SDS011;37886;53.174;6.368;2022-12-07T04:49:41;9.10;;;1.50;;
51838;SDS011;37886;53.174;6.368;2022-12-07T04:52:09;8.02;;;1.45;;
51838;SDS011;37886;53.174;6.368;2022-12-07T04:54:35;9.43;;;1.08;;
51838;SDS011;37886;53.174;6.368;2022-12-07T04:57:01;9.00;;;1.40;;
51838;SDS011;37886;53.174;6.368;2022-12-07T04:59:26;18.40;;;1.95;;
51838;SDS011;37886;53.174;6.368;2022-12-07T05:01:52;10.65;;;1.25;;
51838;SDS011;37886;53.174;6.368;2022-12-07T05:04:18;11.85;;;1.60;;
51838;SDS011;37886;53.174;6.368;2022-12-07T05:06:46;15.55;;;1.67;;
51838;SDS011;37886;53.174;6.368;2022-12-07T05:09:12;7.93;;;1.50;;
51838;SDS011;37886;53.174;6.368;2022-12-07T05:11:37;11.60;;;1.23;;
51838;SDS011;37886;53.174;6.368;2022-12-07T05:14:05;12.05;;;1.23;;
51838;SDS011;37886;53.174;6.368;2022-12-07T05:16:33;11.40;;;1.50;;
51838;SDS011;37886;53.174;6.368;2022-12-07T05:18:59;16.70;;;1.73;;
51838;SDS011;37886;53.174;6.368;2022-12-07T05:21:25;7.88;;;1.67;;
51838;SDS011;37886;53.174;6.368;2022-12-07T05:23:51;17.15;;;2.28;;
51838;SDS011;37886;53.174;6.368;2022-12-07T05:26:17;15.98;;;2.85;;
51838;SDS011;37886;53.174;6.368;2022-12-07T05:28:43;12.95;;;2.80;;
51838;SDS011;37886;53.174;6.368;2022-12-07T05:31:08;19.98;;;3.58;;
51838;SDS011;37886;53.174;6.368;2022-12-07T05:33:34;14.80;;;3.20;;
51838;SDS011;37886;53.174;6.368;2022-12-07T05:36:00;22.27;;;3.13;;
51838;SDS011;37886;53.174;6.368;2022-12-07T05:38:30;14.35;;;2.08;;
51838;SDS011;37886;53.174;6.368;2022-12-07T05:40:59;19.75;;;2.17;;
51838;SDS011;37886;53.174;6.368;2022-12-07T05:43:30;16.00;;;2.10;;
51838;SDS011;37886;53.174;6.368;2022-12-07T05:45:56;15.10;;;1.70;;
51838;SDS011;37886;53.174;6.368;2022-12-07T05:48:22;13.13;;;1.83;;
51838;SDS011;37886;53.174;6.368;2022-12-07T05:50:48;11.82;;;1.92;;
51838;SDS011;37886;53.174;6.368;2022-12-07T05:53:15;12.95;;;1.58;;
51838;SDS011;37886;53.174;6.368;2022-12-07T05:55:41;8.73;;;2.00;;
51838;SDS011;37886;53.174;6.368;2022-12-07T05:58:07;15.35;;;1.40;;
51838;SDS011;37886;53.174;6.368;2022-12-07T06:00:51;14.95;;;1.60;;
51838;SDS011;37886;53.174;6.368;2022-12-07T06:03:22;14.25;;;1.70;;
51838;SDS011;37886;53.174;6.368;2022-12-07T06:05:48;10.18;;;1.58;;
51838;SDS011;37886;53.174;6.368;2022-12-07T06:08:13;7.80;;;1.38;;
51838;SDS011;37886;53.174;6.368;2022-12-07T06:10:40;8.10;;;1.15;;
51838;SDS011;37886;53.174;6.368;2022-12-07T06:13:07;5.15;;;1.00;;
51838;SDS011;37886;53.174;6.368;2022-12-07T06:15:36;6.32;;;1.35;;
51838;SDS011;37886;53.174;6.368;2022-12-07T06:18:02;12.52;;;1.42;;
51838;SDS011;37886;53.174;6.368;2022-12-07T06:20:28;3.50;;;1.00;;
51838;SDS011;37886;53.174;6.368;2022-12-07T06:22:54;10.38;;;1.02;;
51838;SDS011;37886;53.174;6.368;2022-12-07T06:25:20;8.35;;;1.70;;
51838;SDS011;37886;53.174;6.368;2022-12-07T06:27:48;5.65;;;1.00;;
51838;SDS011;37886;53.174;6.368;2022-12-07T06:30:13;9.32;;;1.55;;
51838;SDS011;37886;53.174;6.368;2022-12-07T06:32:39;10.38;;;1.20;;
51838;SDS011;37886;53.174;6.368;2022-12-07T06:35:05;5.45;;;1.40;;
51838;SDS011;37886;53.174;6.368;2022-12-07T06:37:34;7.60;;;1.50;;
51838;SDS011;37886;53.174;6.368;2022-12-07T06:40:02;12.93;;;1.52;;
51838;SDS011;37886;53.174;6.368;2022-12-07T06:42:28;12.65;;;1.60;;
51838;SDS011;37886;53.174;6.368;2022-12-07T06:44:53;18.27;;;1.75;;
51838;SDS011;37886;53.174;6.368;2022-12-07T06:47:19;15.30;;;1.98;;
51838;SDS011;37886;53.174;6.368;2022-12-07T06:49:45;14.00;;;1.83;;
51838;SDS011;37886;53.174;6.368;2022-12-07T06:52:10;17.00;;;2.03;;
51838;SDS011;37886;53.174;6.368;2022-12-07T06:54:36;13.10;;;2.00;;
51838;SDS011;37886;53.174;6.368;2022-12-07T06:57:02;10.07;;;1.58;;
51838;SDS011;37886;53.174;6.368;2022-12-07T06:59:30;13.00;;;1.73;;
51838;SDS011;37886;53.174;6.368;2022-12-07T07:01:55;14.50;;;1.75;;
51838;SDS011;37886;53.174;6.368;2022-12-07T07:04:21;8.23;;;2.15;;
51838;SDS011;37886;53.174;6.368;2022-12-07T07:06:47;14.15;;;1.90;;
51838;SDS011;37886;53.174;6.368;2022-12-07T07:09:13;13.15;;;1.90;;
51838;SDS011;37886;53.174;6.368;2022-12-07T07:11:39;11.30;;;1.80;;
51838;SDS011;37886;53.174;6.368;2022-12-07T07:14:04;27.27;;;1.95;;
51838;SDS011;37886;53.174;6.368;2022-12-07T07:16:30;8.32;;;1.67;;
51838;SDS011;37886;53.174;6.368;2022-12-07T07:18:56;15.90;;;1.67;;
51838;SDS011;37886;53.174;6.368;2022-12-07T07:21:22;14.45;;;1.73;;
51838;SDS011;37886;53.174;6.368;2022-12-07T07:23:48;14.43;;;1.70;;
51838;SDS011;37886;53.174;6.368;2022-12-07T07:26:16;17.95;;;1.88;;
51838;SDS011;37886;53.174;6.368;2022-12-07T07:28:42;19.73;;;2.38;;
51838;SDS011;37886;53.174;6.368;2022-12-07T07:31:07;14.50;;;1.90;;
51838;SDS011;37886;53.174;6.368;2022-12-07T07:33:33;11.35;;;2.17;;
51838;SDS011;37886;53.174;6.368;2022-12-07T07:35:59;15.73;;;2.15;;
51838;SDS011;37886;53.174;6.368;2022-12-07T07:38:25;15.93;;;2.08;;
51838;SDS011;37886;53.174;6.368;2022-12-07T07:40:50;13.98;;;2.63;;
51838;SDS011;37886;53.174;6.368;2022-12-07T07:43:16;12.75;;;1.90;;
51838;SDS011;37886;53.174;6.368;2022-12-07T07:45:42;10.90;;;1.80;;
51838;SDS011;37886;53.174;6.368;2022-12-07T07:48:07;12.50;;;1.73;;
51838;SDS011;37886;53.174;6.368;2022-12-07T07:50:33;9.70;;;1.80;;
51838;SDS011;37886;53.174;6.368;2022-12-07T07:52:59;20.10;;;1.80;;
51838;SDS011;37886;53.174;6.368;2022-12-07T07:55:24;16.02;;;1.77;;
51838;SDS011;37886;53.174;6.368;2022-12-07T07:57:50;14.27;;;2.80;;
51838;SDS011;37886;53.174;6.368;2022-12-07T08:00:16;19.48;;;3.42;;
51838;SDS011;37886;53.174;6.368;2022-12-07T08:02:42;21.17;;;3.72;;
51838;SDS011;37886;53.174;6.368;2022-12-07T08:05:08;18.55;;;2.53;;
51838;SDS011;37886;53.174;6.368;2022-12-07T08:07:35;17.48;;;2.63;;
51838;SDS011;37886;53.174;6.368;2022-12-07T08:10:01;16.23;;;2.25;;
51838;SDS011;37886;53.174;6.368;2022-12-07T08:12:29;10.88;;;2.22;;
51838;SDS011;37886;53.174;6.368;2022-12-07T08:14:55;12.73;;;2.30;;
51838;SDS011;37886;53.174;6.368;2022-12-07T08:17:20;13.65;;;2.40;;
51838;SDS011;37886;53.174;6.368;2022-12-07T08:19:46;10.68;;;2.05;;
51838;SDS011;37886;53.174;6.368;2022-12-07T08:22:12;14.05;;;2.97;;
51838;SDS011;37886;53.174;6.368;2022-12-07T08:24:37;19.40;;;2.88;;
51838;SDS011;37886;53.174;6.368;2022-12-07T08:27:03;14.70;;;2.90;;
51838;SDS011;37886;53.174;6.368;2022-12-07T08:29:29;14.77;;;3.00;;
51838;SDS011;37886;53.174;6.368;2022-12-07T08:31:55;20.50;;;3.55;;
51838;SDS011;37886;53.174;6.368;2022-12-07T08:34:20;19.13;;;4.28;;
51838;SDS011;37886;53.174;6.368;2022-12-07T08:36:48;19.60;;;4.38;;
51838;SDS011;37886;53.174;6.368;2022-12-07T08:39:14;17.83;;;4.20;;
51838;SDS011;37886;53.174;6.368;2022-12-07T08:41:40;16.30;;;3.53;;
51838;SDS011;37886;53.174;6.368;2022-12-07T08:44:06;20.10;;;3.15;;
51838;SDS011;37886;53.174;6.368;2022-12-07T08:47:14;22.92;;;4.38;;
51838;SDS011;37886;53.174;6.368;2022-12-07T08:49:27;20.05;;;6.70;;
51838;SDS011;37886;53.174;6.368;2022-12-07T08:51:58;30.30;;;8.43;;
51838;SDS011;37886;53.174;6.368;2022-12-07T08:54:24;17.33;;;5.22;;
51838;SDS011;37886;53.174;6.368;2022-12-07T08:56:50;13.27;;;3.22;;
51838;SDS011;37886;53.174;6.368;2022-12-07T08:59:17;21.08;;;4.15;;
51838;SDS011;37886;53.174;6.368;2022-12-07T09:01:43;12.18;;;3.90;;
51838;SDS011;37886;53.174;6.368;2022-12-07T09:04:09;17.27;;;3.20;;
51838;SDS011;37886;53.174;6.368;2022-12-07T09:06:41;13.60;;;2.40;;
51838;SDS011;37886;53.174;6.368;2022-12-07T09:09:07;13.52;;;2.00;;
51838;SDS011;37886;53.174;6.368;2022-12-07T09:11:44;16.80;;;2.50;;
51838;SDS011;37886;53.174;6.368;2022-12-07T09:14:11;19.15;;;2.83;;
51838;SDS011;37886;53.174;6.368;2022-12-07T09:16:38;12.45;;;2.00;;
51838;SDS011;37886;53.174;6.368;2022-12-07T09:19:03;15.18;;;2.33;;
51838;SDS011;37886;53.174;6.368;2022-12-07T09:21:29;8.02;;;1.70;;
51838;SDS011;37886;53.174;6.368;2022-12-07T09:23:55;12.45;;;1.70;;
51838;SDS011;37886;53.174;6.368;2022-12-07T09:26:21;8.93;;;1.55;;
51838;SDS011;37886;53.174;6.368;2022-12-07T09:28:48;5.30;;;1.40;;
51838;SDS011;37886;53.174;6.368;2022-12-07T09:31:14;10.45;;;1.65;;
51838;SDS011;37886;53.174;6.368;2022-12-07T09:33:40;9.43;;;1.88;;
51838;SDS011;37886;53.174;6.368;2022-12-07T09:36:06;14.15;;;2.30;;
51838;SDS011;37886;53.174;6.368;2022-12-07T09:38:32;11.43;;;2.15;;
51838;SDS011;37886;53.174;6.368;2022-12-07T09:40:58;11.55;;;1.70;;
51838;SDS011;37886;53.174;6.368;2022-12-07T09:43:33;8.80;;;1.77;;
51838;SDS011;37886;53.174;6.368;2022-12-07T09:46:02;11.43;;;1.65;;
51838;SDS011;37886;53.174;6.368;2022-12-07T09:48:30;10.40;;;1.85;;
51838;SDS011;37886;53.174;6.368;2022-12-07T09:51:13;9.85;;;2.08;;
51838;SDS011;37886;53.174;6.368;2022-12-07T09:53:42;14.48;;;2.10;;
51838;SDS011;37886;53.174;6.368;2022-12-07T09:56:11;12.88;;;2.60;;
51838;SDS011;37886;53.174;6.368;2022-12-07T09:58:40;15.75;;;2.80;;
51838;SDS011;37886;53.174;6.368;2022-12-07T10:01:14;14.70;;;2.47;;
51838;SDS011;37886;53.174;6.368;2022-12-07T10:03:45;14.07;;;2.67;;
51838;SDS011;37886;53.174;6.368;2022-12-07T10:06:17;18.45;;;2.10;;
51838;SDS011;37886;53.174;6.368;2022-12-07T10:08:43;13.13;;;1.80;;
51838;SDS011;37886;53.174;6.368;2022-12-07T10:11:09;12.85;;;2.15;;
51838;SDS011;37886;53.174;6.368;2022-12-07T10:13:40;11.93;;;1.90;;
51838;SDS011;37886;53.174;6.368;2022-12-07T10:22:03;15.20;;;2.63;;
51838;SDS011;37886;53.174;6.368;2022-12-07T10:24:42;10.13;;;1.95;;
51838;SDS011;37886;53.174;6.368;2022-12-07T10:30:03;10.73;;;1.90;;
51838;SDS011;37886;53.174;6.368;2022-12-07T10:32:35;14.23;;;3.03;;
51838;SDS011;37886;53.174;6.368;2022-12-07T10:35:21;16.33;;;2.67;;
51838;SDS011;37886;53.174;6.368;2022-12-07T10:37:55;10.85;;;1.98;;
51838;SDS011;37886;53.174;6.368;2022-12-07T10:45:57;7.85;;;1.88;;
51838;SDS011;37886;53.174;6.368;2022-12-07T10:55:17;8.20;;;2.15;;
51838;SDS011;37886;53.174;6.368;2022-12-07T11:00:02;9.75;;;1.60;;
51838;SDS011;37886;53.174;6.368;2022-12-07T11:09:02;6.05;;;1.42;;
51838;SDS011;37886;53.174;6.368;2022-12-07T11:11:36;7.40;;;1.17;;
51838;SDS011;37886;53.174;6.368;2022-12-07T11:17:11;7.03;;;2.78;;
51838;SDS011;37886;53.174;6.368;2022-12-07T11:29:26;9.60;;;2.00;;
51838;SDS011;37886;53.174;6.368;2022-12-07T11:37:33;7.88;;;1.83;;
51838;SDS011;37886;53.174;6.368;2022-12-07T11:40:05;14.98;;;4.60;;
51838;SDS011;37886;53.174;6.368;2022-12-07T11:42:45;7.50;;;1.67;;
51838;SDS011;37886;53.174;6.368;2022-12-07T11:45:33;8.93;;;1.40;;
51838;SDS011;37886;53.174;6.368;2022-12-07T11:48:25;6.07;;;1.45;;
51838;SDS011;37886;53.174;6.368;2022-12-07T11:51:09;10.38;;;2.08;;
51838;SDS011;37886;53.174;6.368;2022-12-07T11:53:42;8.55;;;1.40;;
51838;SDS011;37886;53.174;6.368;2022-12-07T11:56:14;10.02;;;1.75;;
51838;SDS011;37886;53.174;6.368;2022-12-07T11:58:45;12.10;;;3.42;;
51838;SDS011;37886;53.174;6.368;2022-12-07T12:01:22;6.22;;;1.73;;
51838;SDS011;37886;53.174;6.368;2022-12-07T12:06:40;10.88;;;1.88;;
51838;SDS011;37886;53.174;6.368;2022-12-07T12:09:14;11.80;;;1.58;;
51838;SDS011;37886;53.174;6.368;2022-12-07T12:20:28;9.95;;;1.30;;
51838;SDS011;37886;53.174;6.368;2022-12-07T12:23:00;10.30;;;1.50;;
51838;SDS011;37886;53.174;6.368;2022-12-07T12:28:17;6.13;;;1.10;;
51838;SDS011;37886;53.174;6.368;2022-12-07T12:31:12;6.28;;;1.20;;
51838;SDS011;37886;53.174;6.368;2022-12-07T12:34:01;5.13;;;1.10;;
51838;SDS011;37886;53.174;6.368;2022-12-07T12:39:16;6.10;;;1.10;;
51838;SDS011;37886;53.174;6.368;2022-12-07T12:42:17;8.30;;;1.23;;
51838;SDS011;37886;53.174;6.368;2022-12-07T12:45:22;7.18;;;1.00;;
51838;SDS011;37886;53.174;6.368;2022-12-07T12:57:13;8.95;;;1.20;;
51838;SDS011;37886;53.174;6.368;2022-12-07T13:02:54;5.93;;;1.20;;
51838;SDS011;37886;53.174;6.368;2022-12-07T13:05:36;7.22;;;1.17;;
51838;SDS011;37886;53.174;6.368;2022-12-07T13:09:23;2.95;;;1.15;;
51838;SDS011;37886;53.174;6.368;2022-12-07T13:13:35;5.03;;;1.30;;
51838;SDS011;37886;53.174;6.368;2022-12-07T13:18:42;4.82;;;1.13;;
51838;SDS011;37886;53.174;6.368;2022-12-07T13:26:18;4.97;;;0.80;;
51838;SDS011;37886;53.174;6.368;2022-12-07T13:29:15;5.80;;;1.00;;
51838;SDS011;37886;53.174;6.368;2022-12-07T13:38:13;4.72;;;0.93;;
51838;SDS011;37886;53.174;6.368;2022-12-07T13:41:21;4.38;;;1.00;;
51838;SDS011;37886;53.174;6.368;2022-12-07T13:54:33;7.32;;;1.25;;
51838;SDS011;37886;53.174;6.368;2022-12-07T13:57:24;7.32;;;1.35;;
51838;SDS011;37886;53.174;6.368;2022-12-07T13:59:54;5.78;;;1.15;;
51838;SDS011;37886;53.174;6.368;2022-12-07T14:02:28;7.15;;;1.20;;
51838;SDS011;37886;53.174;6.368;2022-12-07T14:08:33;10.55;;;1.30;;
51838;SDS011;37886;53.174;6.368;2022-12-07T14:10:35;5.75;;;1.13;;
51838;SDS011;37886;53.174;6.368;2022-12-07T14:16:27;4.28;;;1.15;;
51838;SDS011;37886;53.174;6.368;2022-12-07T14:22:53;7.93;;;1.40;;
51838;SDS011;37886;53.174;6.368;2022-12-07T14:27:46;10.60;;;2.47;;
51838;SDS011;37886;53.174;6.368;2022-12-07T14:30:29;16.00;;;2.28;;
51838;SDS011;37886;53.174;6.368;2022-12-07T14:33:33;10.25;;;1.52;;
51838;SDS011;37886;53.174;6.368;2022-12-07T14:36:11;10.82;;;1.63;;
51838;SDS011;37886;53.174;6.368;2022-12-07T14:38:42;6.10;;;1.20;;
51838;SDS011;37886;53.174;6.368;2022-12-07T14:41:15;6.07;;;1.40;;
51838;SDS011;37886;53.174;6.368;2022-12-07T14:44:19;10.23;;;1.50;;
51838;SDS011;37886;53.174;6.368;2022-12-07T14:46:51;10.98;;;1.35;;
51838;SDS011;37886;53.174;6.368;2022-12-07T14:49:23;4.05;;;1.30;;
51838;SDS011;37886;53.174;6.368;2022-12-07T14:52:08;5.50;;;1.40;;
51838;SDS011;37886;53.174;6.368;2022-12-07T15:01:39;6.40;;;1.38;;
51838;SDS011;37886;53.174;6.368;2022-12-07T15:04:49;7.32;;;1.67;;
51838;SDS011;37886;53.174;6.368;2022-12-07T15:07:20;5.28;;;1.20;;
51838;SDS011;37886;53.174;6.368;2022-12-07T15:09:55;4.57;;;1.20;;
51838;SDS011;37886;53.174;6.368;2022-12-07T15:23:41;9.40;;;1.75;;
51838;SDS011;37886;53.174;6.368;2022-12-07T15:26:11;7.90;;;2.08;;
51838;SDS011;37886;53.174;6.368;2022-12-07T15:28:52;12.05;;;1.40;;
51838;SDS011;37886;53.174;6.368;2022-12-07T15:31:35;5.50;;;1.88;;
51838;SDS011;37886;53.174;6.368;2022-12-07T15:34:36;8.38;;;1.40;;
51838;SDS011;37886;53.174;6.368;2022-12-07T15:37:05;6.15;;;2.10;;
51838;SDS011;37886;53.174;6.368;2022-12-07T15:39:50;8.63;;;2.22;;
51838;SDS011;37886;53.174;6.368;2022-12-07T15:42:54;5.07;;;2.20;;
51838;SDS011;37886;53.174;6.368;2022-12-07T15:45:26;14.00;;;4.80;;
51838;SDS011;37886;53.174;6.368;2022-12-07T15:48:13;10.70;;;2.20;;
51838;SDS011;37886;53.174;6.368;2022-12-07T15:50:41;9.50;;;4.63;;
51838;SDS011;37886;53.174;6.368;2022-12-07T15:53:06;11.18;;;2.25;;
51838;SDS011;37886;53.174;6.368;2022-12-07T15:55:32;10.80;;;3.65;;
51838;SDS011;37886;53.174;6.368;2022-12-07T15:57:58;9.88;;;2.97;;
51838;SDS011;37886;53.174;6.368;2022-12-07T16:00:26;17.42;;;10.50;;
51838;SDS011;37886;53.174;6.368;2022-12-07T16:02:52;10.70;;;6.18;;
51838;SDS011;37886;53.174;6.368;2022-12-07T16:05:17;9.10;;;4.32;;
51838;SDS011;37886;53.174;6.368;2022-12-07T16:07:43;6.47;;;3.10;;
51838;SDS011;37886;53.174;6.368;2022-12-07T16:10:11;8.55;;;3.70;;
51838;SDS011;37886;53.174;6.368;2022-12-07T16:12:37;9.68;;;5.13;;
51838;SDS011;37886;53.174;6.368;2022-12-07T16:15:02;13.02;;;3.60;;
51838;SDS011;37886;53.174;6.368;2022-12-07T16:17:28;12.32;;;2.70;;
51838;SDS011;37886;53.174;6.368;2022-12-07T16:19:54;11.63;;;4.35;;
51838;SDS011;37886;53.174;6.368;2022-12-07T16:22:23;33.90;;;12.35;;
51838;SDS011;37886;53.174;6.368;2022-12-07T16:24:49;25.80;;;10.40;;
51838;SDS011;37886;53.174;6.368;2022-12-07T16:27:14;25.33;;;10.15;;
51838;SDS011;37886;53.174;6.368;2022-12-07T16:29:40;44.03;;;21.70;;
51838;SDS011;37886;53.174;6.368;2022-12-07T16:32:05;17.90;;;7.15;;
51838;SDS011;37886;53.174;6.368;2022-12-07T16:34:31;7.05;;;2.60;;
51838;SDS011;37886;53.174;6.368;2022-12-07T16:36:57;6.78;;;1.73;;
51838;SDS011;37886;53.174;6.368;2022-12-07T16:39:23;8.63;;;1.88;;
51838;SDS011;37886;53.174;6.368;2022-12-07T16:41:49;8.52;;;1.52;;
51838;SDS011;37886;53.174;6.368;2022-12-07T16:44:15;7.95;;;1.67;;
51838;SDS011;37886;53.174;6.368;2022-12-07T16:46:41;7.15;;;2.08;;
51838;SDS011;37886;53.174;6.368;2022-12-07T16:49:11;6.45;;;1.95;;
51838;SDS011;37886;53.174;6.368;2022-12-07T16:51:38;10.18;;;5.05;;
51838;SDS011;37886;53.174;6.368;2022-12-07T16:54:04;8.25;;;3.63;;
51838;SDS011;37886;53.174;6.368;2022-12-07T16:56:30;7.20;;;2.88;;
51838;SDS011;37886;53.174;6.368;2022-12-07T16:58:59;8.82;;;3.75;;
51838;SDS011;37886;53.174;6.368;2022-12-07T17:01:24;13.93;;;2.47;;
51838;SDS011;37886;53.174;6.368;2022-12-07T17:03:53;8.55;;;2.35;;
51838;SDS011;37886;53.174;6.368;2022-12-07T17:06:20;6.80;;;2.17;;
51838;SDS011;37886;53.174;6.368;2022-12-07T17:08:56;12.50;;;6.13;;
51838;SDS011;37886;53.174;6.368;2022-12-07T17:11:33;17.40;;;6.25;;
51838;SDS011;37886;53.174;6.368;2022-12-07T17:14:12;36.20;;;20.60;;
51838;SDS011;37886;53.174;6.368;2022-12-07T17:17:02;54.90;;;33.40;;
51838;SDS011;37886;53.174;6.368;2022-12-07T17:19:40;30.48;;;15.25;;
51838;SDS011;37886;53.174;6.368;2022-12-07T17:22:12;20.20;;;9.18;;
51838;SDS011;37886;53.174;6.368;2022-12-07T17:24:43;8.45;;;3.47;;
51838;SDS011;37886;53.174;6.368;2022-12-07T17:27:09;33.03;;;17.20;;
51838;SDS011;37886;53.174;6.368;2022-12-07T17:29:35;18.02;;;4.93;;
51838;SDS011;37886;53.174;6.368;2022-12-07T17:32:01;8.32;;;2.78;;
51838;SDS011;37886;53.174;6.368;2022-12-07T17:34:27;6.00;;;2.40;;
51838;SDS011;37886;53.174;6.368;2022-12-07T17:36:53;6.80;;;2.22;;
51838;SDS011;37886;53.174;6.368;2022-12-07T17:39:19;5.20;;;1.60;;
51838;SDS011;37886;53.174;6.368;2022-12-07T17:41:45;6.25;;;1.67;;
51838;SDS011;37886;53.174;6.368;2022-12-07T17:44:29;9.93;;;2.10;;
51838;SDS011;37886;53.174;6.368;2022-12-07T17:46:59;6.25;;;1.58;;
51838;SDS011;37886;53.174;6.368;2022-12-07T17:51:52;5.63;;;1.60;;
51838;SDS011;37886;53.174;6.368;2022-12-07T17:54:37;7.32;;;2.03;;
51838;SDS011;37886;53.174;6.368;2022-12-07T17:57:03;9.38;;;3.45;;
51838;SDS011;37886;53.174;6.368;2022-12-07T17:59:29;14.30;;;6.45;;